Time;durP1;ratioP1;P1;durP2;ratioP2;P2;SDS_P1;SDS_P2;PMS_P1;PMS_P2;Temp;Humidity;BMP_temperature;BMP_pressure;BME280_temperature;BME280_humidity;BME280_pressure;Samples;Min_cycle;Max_cycle;Signal;HPM_P1;HPM_P2
2022/09/17 00:01:04;;;;;;;4.40;4.00;;;11.70;1.00;;;;;;6275932;28;20400;-54
2022/09/17 00:04:07;;;;;;;6.03;4.03;;;11.70;1.00;;;;;;6281519;28;20245;-53
2022/09/17 00:07:11;;;;;;;8.00;3.77;;;11.70;1.00;;;;;;6283046;28;20229;-54
2022/09/17 00:10:15;;;;;;;7.07;4.13;;;11.70;1.00;;;;;;6276080;28;20392;-55
2022/09/17 00:13:17;;;;;;;7.80;3.60;;;11.70;1.00;;;;;;6257796;28;20234;-55
2022/09/17 00:16:26;;;;;;;3.87;3.30;;;11.70;1.00;;;;;;6257904;28;20273;-55
2022/09/17 00:19:29;;;;;;;5.53;3.63;;;11.80;1.00;;;;;;6294361;28;20243;-54
2022/09/17 00:22:34;;;;;;;5.23;3.37;;;11.80;1.00;;;;;;6279859;28;20546;-54
2022/09/17 00:25:38;;;;;;;4.23;3.80;;;11.80;1.00;;;;;;6284210;28;20229;-54
2022/09/17 00:28:44;;;;;;;6.57;3.83;;;11.80;1.00;;;;;;6274781;28;20306;-55
2022/09/17 00:31:47;;;;;;;5.50;3.83;;;11.80;1.00;;;;;;6282766;28;20241;-55
2022/09/17 00:34:51;;;;;;;8.90;3.97;;;11.80;1.00;;;;;;6297998;28;20336;-55
2022/09/17 00:37:55;;;;;;;5.70;3.50;;;11.80;1.00;;;;;;6295899;28;20484;-53
2022/09/17 00:40:58;;;;;;;6.23;3.90;;;11.80;1.00;;;;;;6261785;28;20241;-54
2022/09/17 00:44:22;;;;;;;8.17;3.83;;;11.80;1.00;;;;;;6262491;28;20256;-53
2022/09/17 00:47:30;;;;;;;5.60;3.60;;;11.90;1.00;;;;;;6276420;28;20233;-56
2022/09/17 00:50:37;;;;;;;10.63;4.10;;;11.90;1.00;;;;;;6286770;28;20808;-54
2022/09/17 00:53:42;;;;;;;4.60;4.30;;;11.90;1.00;;;;;;6271658;28;20247;-55
2022/09/17 00:56:45;;;;;;;7.13;4.03;;;11.90;1.00;;;;;;6261667;28;20435;-55
2022/09/17 00:59:49;;;;;;;6.87;4.07;;;11.90;1.00;;;;;;6261506;28;20230;-56
2022/09/17 01:02:53;;;;;;;8.03;3.70;;;12.00;1.00;;;;;;6276179;28;20233;-55
2022/09/17 01:06:05;;;;;;;8.60;3.70;;;12.00;1.00;;;;;;6279513;28;20237;-53
2022/09/17 01:09:25;;;;;;;7.07;3.50;;;12.00;1.00;;;;;;6276044;28;20229;-55
2022/09/17 01:12:41;;;;;;;9.07;3.90;;;12.00;1.00;;;;;;6286664;28;20484;-54
2022/09/17 01:15:51;;;;;;;5.60;4.17;;;12.00;1.00;;;;;;6269972;28;20619;-54
2022/09/17 01:19:07;;;;;;;9.17;3.93;;;12.00;1.00;;;;;;6267442;28;20593;-55
2022/09/17 01:22:18;;;;;;;4.93;3.60;;;12.00;1.00;;;;;;6286390;28;20428;-56
2022/09/17 01:25:31;;;;;;;7.37;3.90;;;12.10;1.00;;;;;;6273714;28;20225;-55
2022/09/17 01:28:43;;;;;;;3.73;3.43;;;12.10;1.00;;;;;;6285142;28;20245;-56
2022/09/17 01:31:51;;;;;;;3.97;3.60;;;12.00;1.00;;;;;;6286611;28;20672;-56
2022/09/17 01:35:01;;;;;;;5.03;3.80;;;12.00;1.00;;;;;;6295839;28;20221;-55
2022/09/17 01:38:12;;;;;;;4.60;3.50;;;12.10;1.00;;;;;;6312351;28;20706;-56
2022/09/17 01:41:26;;;;;;;4.07;3.67;;;12.10;1.00;;;;;;6300372;28;20237;-55
2022/09/17 01:44:35;;;;;;;7.23;3.70;;;12.10;1.00;;;;;;6274868;28;20253;-55
2022/09/17 01:47:44;;;;;;;5.70;3.27;;;12.10;1.00;;;;;;6282002;28;20237;-55
2022/09/17 01:50:52;;;;;;;3.87;3.43;;;12.10;1.00;;;;;;6286482;28;20256;-55
2022/09/17 01:53:59;;;;;;;5.27;3.63;;;12.10;1.00;;;;;;6285746;28;20738;-55
2022/09/17 01:57:07;;;;;;;5.10;3.93;;;12.10;1.00;;;;;;6261123;28;20868;-55
2022/09/17 02:00:14;;;;;;;4.57;3.77;;;12.20;1.00;;;;;;6261008;28;20253;-55
2022/09/17 02:03:22;;;;;;;6.03;4.00;;;12.20;1.00;;;;;;6252749;28;20249;-55
2022/09/17 02:06:29;;;;;;;5.40;3.53;;;12.20;1.00;;;;;;6291303;28;20260;-55
2022/09/17 02:09:38;;;;;;;8.20;3.97;;;12.20;1.00;;;;;;6275196;28;20234;-56
2022/09/17 02:12:45;;;;;;;4.07;3.67;;;12.20;1.00;;;;;;6260697;28;20234;-55
2022/09/17 02:15:57;;;;;;;5.70;4.33;;;12.20;1.00;;;;;;6273754;28;20479;-55
2022/09/17 02:19:05;;;;;;;9.20;4.40;;;12.20;1.00;;;;;;6282790;28;20240;-54
2022/09/17 02:22:19;;;;;;;8.27;4.10;;;12.10;1.00;;;;;;6286300;28;20432;-53
2022/09/17 02:25:28;;;;;;;7.03;4.07;;;12.10;1.00;;;;;;6283858;28;23362;-54
2022/09/17 02:28:40;;;;;;;9.20;4.17;;;12.10;1.00;;;;;;6266977;28;20242;-55
2022/09/17 02:31:43;;;;;;;6.53;3.93;;;12.10;1.00;;;;;;6259764;28;20628;-54
2022/09/17 02:34:47;;;;;;;9.00;4.17;;;12.10;1.00;;;;;;6287985;28;20752;-55
2022/09/17 02:37:52;;;;;;;7.67;4.10;;;12.10;1.00;;;;;;6280253;28;20240;-55
2022/09/17 02:41:01;;;;;;;5.10;3.87;;;12.10;1.00;;;;;;6283846;28;20570;-54
2022/09/17 02:44:12;;;;;;;8.37;4.57;;;12.10;1.00;;;;;;6278046;28;20241;-55
2022/09/17 02:47:38;;;;;;;5.37;4.13;;;12.10;1.00;;;;;;6288808;28;20937;-55
2022/09/17 02:51:05;;;;;;;4.43;4.10;;;12.10;1.00;;;;;;6275128;28;20405;-55
2022/09/17 02:54:19;;;;;;;8.27;4.30;;;12.10;1.00;;;;;;6283541;28;20241;-53
2022/09/17 02:57:30;;;;;;;8.90;4.67;;;12.00;1.00;;;;;;6283622;28;20244;-54
2022/09/17 03:00:34;;;;;;;6.80;4.50;;;12.10;1.00;;;;;;6260848;28;20238;-55
2022/09/17 03:03:41;;;;;;;8.57;4.40;;;12.10;1.00;;;;;;6268981;28;20324;-54
2022/09/17 03:06:47;;;;;;;5.90;4.30;;;12.10;1.00;;;;;;6283314;28;20244;-54
2022/09/17 03:09:50;;;;;;;7.67;4.37;;;12.10;1.00;;;;;;6277869;28;20420;-54
2022/09/17 03:12:54;;;;;;;10.97;4.47;;;12.10;1.00;;;;;;6268372;28;20237;-54
2022/09/17 03:15:56;;;;;;;9.30;4.93;;;12.10;1.00;;;;;;6258385;28;20745;-55
2022/09/17 03:18:59;;;;;;;6.73;4.03;;;12.10;1.00;;;;;;6265741;28;20251;-55
2022/09/17 03:22:04;;;;;;;6.40;4.50;;;12.10;1.00;;;;;;6280770;28;20340;-56
2022/09/17 03:25:08;;;;;;;5.43;4.10;;;12.10;1.00;;;;;;6282796;28;20244;-55
2022/09/17 03:28:11;;;;;;;8.43;3.90;;;12.20;1.00;;;;;;6281434;28;20233;-55
2022/09/17 03:31:14;;;;;;;7.43;4.10;;;12.20;1.00;;;;;;6270565;28;20614;-57
2022/09/17 03:34:17;;;;;;;8.47;4.07;;;12.20;1.00;;;;;;6275859;28;20585;-55
2022/09/17 03:37:21;;;;;;;7.67;4.07;;;12.20;1.00;;;;;;6278635;28;20400;-55
2022/09/17 03:40:24;;;;;;;5.70;4.10;;;12.20;1.00;;;;;;6266517;28;20237;-55
2022/09/17 03:43:27;;;;;;;4.57;4.00;;;12.20;1.00;;;;;;6250756;28;20238;-55
2022/09/17 03:46:30;;;;;;;7.10;4.00;;;12.20;1.00;;;;;;6244407;28;20353;-57
2022/09/17 03:49:33;;;;;;;7.73;3.80;;;12.30;1.00;;;;;;6283066;28;20240;-56
2022/09/17 03:52:38;;;;;;;3.20;3.00;;;12.30;1.00;;;;;;6279158;28;20238;-55
2022/09/17 03:55:41;;;;;;;6.40;3.60;;;12.30;1.00;;;;;;6287710;28;20237;-54
2022/09/17 03:58:44;;;;;;;6.63;3.80;;;12.30;1.00;;;;;;6272264;28;20379;-55
2022/09/17 04:01:46;;;;;;;5.23;3.60;;;12.30;1.00;;;;;;6280696;28;20248;-56
2022/09/17 04:04:50;;;;;;;6.93;4.13;;;12.30;1.00;;;;;;6287466;28;20721;-56
2022/09/17 04:07:54;;;;;;;5.47;3.43;;;12.40;1.00;;;;;;6285519;28;20228;-55
2022/09/17 04:10:57;;;;;;;12.50;4.50;;;12.40;1.00;;;;;;6297262;28;20233;-55
2022/09/17 04:14:00;;;;;;;6.17;3.50;;;12.40;1.00;;;;;;6303146;28;20220;-56
2022/09/17 04:17:03;;;;;;;7.33;3.77;;;12.40;1.00;;;;;;6295271;28;20735;-55
2022/09/17 04:20:06;;;;;;;11.47;4.00;;;12.40;1.00;;;;;;6287159;28;20761;-56
2022/09/17 04:23:11;;;;;;;10.60;3.90;;;12.40;1.00;;;;;;6288670;28;20751;-56
2022/09/17 04:26:14;;;;;;;7.73;4.10;;;12.40;1.00;;;;;;6291551;28;20249;-57
2022/09/17 04:29:17;;;;;;;5.17;3.53;;;12.40;1.00;;;;;;6290796;28;20225;-56
2022/09/17 04:32:20;;;;;;;8.50;3.83;;;12.40;1.00;;;;;;6284179;28;20276;-54
2022/09/17 04:35:23;;;;;;;6.83;3.90;;;12.40;1.00;;;;;;6285333;28;20404;-56
2022/09/17 04:38:27;;;;;;;11.27;3.77;;;12.40;1.00;;;;;;6292688;28;20705;-57
2022/09/17 04:41:30;;;;;;;12.43;4.03;;;12.40;1.00;;;;;;6288825;28;20768;-56
2022/09/17 04:44:33;;;;;;;7.33;4.07;;;12.40;1.00;;;;;;6288955;28;20244;-55
2022/09/17 04:47:38;;;;;;;4.70;3.40;;;12.40;1.00;;;;;;6285499;28;20232;-55
2022/09/17 04:50:41;;;;;;;6.60;4.07;;;12.50;1.00;;;;;;6291051;28;20628;-54
2022/09/17 04:53:45;;;;;;;8.97;4.10;;;12.40;1.00;;;;;;6286003;28;20611;-56
2022/09/17 04:56:48;;;;;;;6.00;3.87;;;12.50;1.00;;;;;;6261269;28;20682;-55
2022/09/17 04:59:51;;;;;;;8.63;3.70;;;12.50;1.00;;;;;;6285128;28;20229;-56
2022/09/17 05:02:55;;;;;;;7.67;3.67;;;12.50;1.00;;;;;;6285640;28;20596;-55
2022/09/17 05:05:58;;;;;;;7.47;3.67;;;12.50;1.00;;;;;;6281281;28;20229;-56
2022/09/17 05:09:02;;;;;;;8.57;3.93;;;12.50;1.00;;;;;;6282767;28;20459;-55
2022/09/17 05:12:05;;;;;;;6.33;3.70;;;12.50;1.00;;;;;;6286851;28;20256;-55
2022/09/17 05:15:09;;;;;;;4.53;3.50;;;12.50;1.00;;;;;;6286449;28;20236;-57
2022/09/17 05:18:12;;;;;;;5.57;3.37;;;12.50;1.00;;;;;;6286174;28;20221;-56
2022/09/17 05:21:15;;;;;;;8.77;4.20;;;12.50;1.00;;;;;;6284878;28;20230;-57
2022/09/17 05:24:19;;;;;;;11.97;3.90;;;12.50;1.00;;;;;;6285757;28;20241;-56
2022/09/17 05:27:22;;;;;;;8.40;4.03;;;12.50;1.00;;;;;;6283224;28;20230;-56
2022/09/17 05:30:25;;;;;;;9.23;3.80;;;12.50;1.00;;;;;;6282993;28;20694;-57
2022/09/17 05:33:28;;;;;;;6.97;4.30;;;12.50;1.00;;;;;;6286677;28;20225;-57
2022/09/17 05:36:31;;;;;;;7.37;3.97;;;12.50;1.00;;;;;;6283639;28;20233;-66
2022/09/17 05:39:35;;;;;;;18.33;4.23;;;12.60;1.00;;;;;;6290273;28;20233;-57
2022/09/17 05:42:38;;;;;;;8.37;3.87;;;12.60;1.00;;;;;;6292710;28;20245;-55
2022/09/17 05:45:41;;;;;;;4.13;3.77;;;12.70;1.00;;;;;;6284871;28;20244;-56
2022/09/17 05:48:44;;;;;;;5.60;3.93;;;12.70;1.00;;;;;;6288783;28;20300;-59
2022/09/17 05:51:47;;;;;;;7.53;3.63;;;12.70;1.00;;;;;;6282134;28;20260;-55
2022/09/17 05:54:51;;;;;;;8.03;4.20;;;12.80;1.00;;;;;;6290616;28;20237;-56
2022/09/17 05:57:54;;;;;;;5.30;3.83;;;12.80;1.00;;;;;;6286398;28;20233;-59
2022/09/17 06:01:00;;;;;;;6.17;3.80;;;12.80;1.00;;;;;;6292590;28;20236;-56
2022/09/17 06:04:05;;;;;;;9.07;4.00;;;12.80;1.00;;;;;;6285228;28;20225;-54
2022/09/17 06:07:08;;;;;;;4.57;3.43;;;12.80;1.00;;;;;;6285160;28;20233;-54
2022/09/17 06:10:12;;;;;;;9.10;4.40;;;12.80;1.00;;;;;;6291510;28;20245;-55
2022/09/17 06:13:15;;;;;;;10.13;3.93;;;12.90;1.00;;;;;;6293540;28;20555;-55
2022/09/17 06:16:18;;;;;;;10.70;4.93;;;12.80;1.00;;;;;;6285305;28;20236;-55
2022/09/17 06:19:21;;;;;;;11.30;5.13;;;12.80;1.00;;;;;;6291617;28;20717;-55
2022/09/17 06:22:24;;;;;;;10.60;5.10;;;12.80;1.00;;;;;;6282158;28;20237;-55
2022/09/17 06:25:30;;;;;;;13.37;5.20;;;12.90;1.00;;;;;;6288015;28;20257;-55
2022/09/17 06:28:33;;;;;;;12.90;4.67;;;12.90;1.00;;;;;;6289800;28;20250;-56
2022/09/17 06:31:43;;;;;;;14.77;4.87;;;12.90;1.00;;;;;;6292937;28;20767;-54
2022/09/17 06:34:48;;;;;;;15.47;5.30;;;12.80;1.00;;;;;;6289079;28;20339;-56
2022/09/17 06:37:51;;;;;;;13.77;5.30;;;12.90;1.00;;;;;;6289246;28;20241;-54
2022/09/17 06:40:55;;;;;;;13.67;5.07;;;12.80;1.00;;;;;;6289985;28;20842;-55
2022/09/17 06:43:58;;;;;;;14.77;5.50;;;12.90;1.00;;;;;;6283144;28;20248;-55
2022/09/17 06:47:01;;;;;;;14.40;5.77;;;12.90;1.00;;;;;;6282380;28;20244;-56
2022/09/17 06:50:04;;;;;;;12.40;5.20;;;13.00;1.00;;;;;;6288501;28;20232;-55
2022/09/17 06:53:09;;;;;;;16.10;5.33;;;13.10;1.00;;;;;;6279607;28;20233;-55
2022/09/17 06:56:13;;;;;;;14.40;5.20;;;13.20;1.00;;;;;;6282097;28;20230;-54
2022/09/17 06:59:16;;;;;;;13.50;5.43;;;13.20;1.00;;;;;;6276618;28;20258;-55
2022/09/17 07:02:19;;;;;;;16.07;5.17;;;13.10;1.00;;;;;;6277432;28;20253;-54
2022/09/17 07:05:22;;;;;;;11.37;5.30;;;13.20;1.00;;;;;;6278032;28;20241;-55
2022/09/17 07:08:25;;;;;;;10.20;5.37;;;13.10;1.00;;;;;;6281987;28;20798;-54
2022/09/17 07:11:31;;;;;;;15.80;5.33;;;13.10;1.00;;;;;;6284426;28;20252;-55
2022/09/17 07:14:34;;;;;;;13.20;5.40;;;13.10;1.00;;;;;;6272636;28;20233;-55
2022/09/17 07:17:38;;;;;;;15.37;5.10;;;13.00;1.00;;;;;;6275936;28;20601;-55
2022/09/17 07:20:40;;;;;;;20.13;5.57;;;13.00;1.00;;;;;;6288678;28;20264;-56
2022/09/17 07:23:44;;;;;;;9.50;4.80;;;13.00;1.00;;;;;;6278476;28;20240;-55
2022/09/17 07:26:50;;;;;;;20.40;5.20;;;13.00;1.00;;;;;;6280811;28;20237;-55
2022/09/17 07:29:53;;;;;;;14.50;4.87;;;13.00;1.00;;;;;;6275627;28;20233;-56
2022/09/17 07:32:55;;;;;;;13.87;5.33;;;13.10;1.00;;;;;;6291534;28;20239;-55
2022/09/17 07:36:00;;;;;;;11.57;4.27;;;13.20;1.00;;;;;;6281402;28;20235;-55
2022/09/17 07:39:03;;;;;;;15.37;4.60;;;13.30;1.00;;;;;;6282520;28;20694;-56
2022/09/17 07:42:07;;;;;;;12.87;4.97;;;13.30;1.00;;;;;;6280294;28;20249;-58
2022/09/17 07:45:10;;;;;;;10.73;4.80;;;13.40;1.00;;;;;;6278302;28;20725;-57
2022/09/17 07:48:13;;;;;;;14.87;4.43;;;13.50;1.00;;;;;;6284353;28;20229;-55
2022/09/17 07:51:17;;;;;;;8.20;4.20;;;13.60;1.00;;;;;;6279331;28;20243;-56
2022/09/17 07:54:21;;;;;;;12.87;4.27;;;13.70;1.00;;;;;;6281314;28;20233;-56
2022/09/17 07:57:26;;;;;;;12.70;4.30;;;13.80;1.00;;;;;;6280615;28;20229;-56
2022/09/17 08:00:28;;;;;;;15.73;4.83;;;13.90;1.00;;;;;;6277677;28;20232;-56
2022/09/17 08:03:32;;;;;;;9.63;4.10;;;13.90;1.00;;;;;;6281166;28;20234;-56
2022/09/17 08:06:39;;;;;;;15.50;4.23;;;14.00;1.00;;;;;;6292048;28;20232;-54
2022/09/17 08:09:42;;;;;;;10.10;4.10;;;14.00;1.00;;;;;;6281004;28;20732;-56
2022/09/17 08:12:46;;;;;;;13.23;4.40;;;14.10;1.00;;;;;;6269189;28;20259;-56
2022/09/17 08:15:49;;;;;;;9.50;3.93;;;14.10;1.00;;;;;;6280910;28;20226;-56
2022/09/17 08:18:55;;;;;;;9.93;4.33;;;14.10;1.00;;;;;;6283598;28;20776;-56
2022/09/17 08:21:58;;;;;;;12.57;4.47;;;14.10;1.00;;;;;;6282286;28;20554;-57
2022/09/17 08:25:02;;;;;;;16.23;4.70;;;14.10;1.00;;;;;;6279653;28;20241;-56
2022/09/17 08:28:07;;;;;;;8.47;3.60;;;14.10;1.00;;;;;;6280880;28;20229;-55
2022/09/17 08:31:10;;;;;;;10.80;4.57;;;14.20;1.00;;;;;;6275328;28;20252;-56
2022/09/17 08:34:13;;;;;;;10.90;3.70;;;14.20;1.00;;;;;;6284432;28;20371;-55
2022/09/17 08:37:16;;;;;;;13.73;4.77;;;14.30;1.00;;;;;;6278664;28;20241;-55
2022/09/17 08:40:21;;;;;;;8.20;3.70;;;14.50;1.00;;;;;;6279683;28;20556;-55
2022/09/17 08:43:27;;;;;;;11.23;3.63;;;14.70;1.00;;;;;;6280725;28;20706;-54
2022/09/17 08:46:33;;;;;;;7.17;3.67;;;14.70;1.00;;;;;;6276390;28;20249;-55
2022/09/17 08:49:41;;;;;;;7.07;4.07;;;14.90;1.00;;;;;;6275125;28;20224;-56
2022/09/17 08:53:06;;;;;;;11.30;4.03;;;14.70;1.00;;;;;;6280606;28;20648;-57
2022/09/17 08:56:13;;;;;;;8.97;3.70;;;14.70;1.00;;;;;;6278372;28;20222;-55
2022/09/17 08:59:25;;;;;;;11.57;4.27;;;14.80;1.00;;;;;;6289520;28;20237;-55
2022/09/17 09:02:47;;;;;;;13.60;3.97;;;14.90;1.00;;;;;;6282281;28;20238;-57
2022/09/17 09:05:52;;;;;;;18.00;4.40;;;14.90;1.00;;;;;;6285400;28;20516;-56
2022/09/17 09:09:02;;;;;;;9.70;3.57;;;14.90;1.00;;;;;;6284247;28;20602;-55
2022/09/17 09:12:10;;;;;;;9.03;3.87;;;15.00;1.00;;;;;;6297790;28;20604;-55
2022/09/17 09:15:29;;;;;;;6.53;3.30;;;14.80;1.00;;;;;;6289775;28;20233;-54
2022/09/17 09:18:36;;;;;;;11.67;3.33;;;14.80;1.00;;;;;;6279065;28;20225;-54
2022/09/17 09:21:48;;;;;;;11.37;4.40;;;14.90;1.00;;;;;;6280568;28;20495;-56
2022/09/17 09:25:03;;;;;;;7.80;3.40;;;15.10;1.00;;;;;;6278056;28;20233;-56
2022/09/17 09:28:18;;;;;;;7.30;3.70;;;15.20;1.00;;;;;;6291526;28;20238;-55
2022/09/17 09:31:57;;;;;;;6.77;3.33;;;15.40;1.00;;;;;;6285763;28;20829;-55
2022/09/17 09:35:02;;;;;;;12.00;3.43;;;15.50;1.00;;;;;;6289937;28;20615;-56
2022/09/17 09:38:14;;;;;;;10.50;3.63;;;15.50;1.00;;;;;;6285606;28;20229;-56
2022/09/17 09:41:23;;;;;;;6.53;3.50;;;15.50;1.00;;;;;;6287127;28;20237;-60
2022/09/17 09:44:27;;;;;;;9.30;3.57;;;15.60;1.00;;;;;;6286198;28;20337;-54
2022/09/17 09:47:48;;;;;;;9.87;3.10;;;15.80;1.00;;;;;;6288802;28;20241;-54
2022/09/17 09:51:06;;;;;;;8.13;3.57;;;15.70;1.00;;;;;;6284733;28;20694;-56
2022/09/17 09:54:23;;;;;;;8.27;3.53;;;15.70;1.00;;;;;;6281659;28;20230;-55
2022/09/17 09:57:39;;;;;;;6.40;3.30;;;15.40;1.00;;;;;;6295931;28;20724;-56
2022/09/17 10:00:43;;;;;;;7.73;3.77;;;15.30;1.00;;;;;;6287644;28;20242;-56
2022/09/17 10:03:48;;;;;;;8.67;3.43;;;15.20;1.00;;;;;;6288471;28;20610;-57
2022/09/17 10:06:53;;;;;;;12.33;4.07;;;15.20;1.00;;;;;;6297915;28;20229;-58
2022/09/17 10:10:09;;;;;;;7.07;3.80;;;15.20;1.00;;;;;;6291046;28;20811;-56
2022/09/17 10:13:13;;;;;;;6.53;3.60;;;15.30;1.00;;;;;;6288981;28;20221;-56
2022/09/17 10:16:18;;;;;;;8.90;3.43;;;15.50;1.00;;;;;;6295146;28;20710;-55
2022/09/17 10:19:24;;;;;;;13.87;3.37;;;15.70;1.00;;;;;;6294274;28;20331;-55
2022/09/17 10:22:32;;;;;;;8.40;3.80;;;16.00;1.00;;;;;;6284074;28;20332;-56
2022/09/17 10:25:35;;;;;;;10.00;3.30;;;16.30;1.00;;;;;;6286241;28;20237;-59
2022/09/17 10:28:48;;;;;;;8.90;3.00;;;16.40;1.00;;;;;;6289526;28;20246;-55
2022/09/17 10:31:53;;;;;;;8.27;3.40;;;16.30;1.00;;;;;;6283910;28;20236;-56
2022/09/17 10:35:04;;;;;;;8.17;3.13;;;16.20;1.00;;;;;;6285473;28;20225;-55
2022/09/17 10:38:33;;;;;;;8.13;2.90;;;16.20;1.00;;;;;;6286158;28;21309;-55
2022/09/17 10:41:36;;;;;;;9.87;3.47;;;16.20;1.00;;;;;;6286189;28;20229;-57
2022/09/17 10:44:51;;;;;;;8.10;3.47;;;15.90;1.00;;;;;;6292801;28;20239;-56
2022/09/17 10:47:55;;;;;;;9.77;3.57;;;15.70;1.00;;;;;;6289039;28;20241;-57
2022/09/17 10:51:01;;;;;;;6.00;3.53;;;15.70;1.00;;;;;;6289225;28;20616;-56
2022/09/17 10:54:22;;;;;;;10.53;3.80;;;15.70;1.00;;;;;;6289086;28;20302;-55
2022/09/17 10:57:36;;;;;;;12.10;3.20;;;15.70;1.00;;;;;;6295465;28;20233;-55
2022/09/17 11:00:48;;;;;;;8.83;3.20;;;15.70;1.00;;;;;;6286142;28;20295;-56
2022/09/17 11:04:20;;;;;;;10.97;3.10;;;15.80;1.00;;;;;;6288563;28;20626;-55
2022/09/17 11:07:43;;;;;;;7.13;3.13;;;15.80;1.00;;;;;;6282884;28;20229;-55
2022/09/17 11:10:51;;;;;;;7.00;2.97;;;16.00;1.00;;;;;;6286823;28;20410;-56
2022/09/17 11:14:06;;;;;;;5.97;2.87;;;16.00;1.00;;;;;;6284125;28;20236;-57
2022/09/17 11:17:17;;;;;;;7.10;3.33;;;16.20;1.00;;;;;;6285552;28;20813;-57
2022/09/17 11:20:32;;;;;;;7.43;3.67;;;16.30;1.00;;;;;;6285197;28;20248;-55
2022/09/17 11:24:08;;;;;;;5.17;2.93;;;16.60;1.00;;;;;;6283032;28;20234;-55
2022/09/17 11:27:27;;;;;;;6.17;3.00;;;16.80;1.00;;;;;;6280242;28;20229;-54
2022/09/17 11:30:39;;;;;;;4.93;2.47;;;16.70;1.00;;;;;;6280535;28;20397;-56
2022/09/17 11:34:04;;;;;;;3.73;2.90;;;16.40;1.00;;;;;;6283651;28;20249;-54
2022/09/17 11:37:13;;;;;;;2.60;2.40;;;16.30;1.00;;;;;;6282580;28;20232;-55
2022/09/17 11:40:22;;;;;;;5.67;2.60;;;16.30;1.00;;;;;;6282990;28;20233;-56
2022/09/17 11:43:27;;;;;;;6.53;2.97;;;16.20;1.00;;;;;;6286820;28;20241;-55
2022/09/17 11:46:37;;;;;;;4.30;2.60;;;16.10;1.00;;;;;;6277411;28;20249;-57
2022/09/17 11:49:46;;;;;;;6.67;3.10;;;16.20;1.00;;;;;;6297180;28;20241;-55
2022/09/17 11:53:01;;;;;;;5.87;2.40;;;16.40;1.00;;;;;;6292698;28;20245;-56
2022/09/17 11:56:14;;;;;;;3.23;2.37;;;16.50;1.00;;;;;;6286071;28;20249;-56
2022/09/17 11:59:24;;;;;;;6.27;2.60;;;16.70;1.00;;;;;;6284400;28;20610;-56
2022/09/17 12:02:42;;;;;;;3.23;2.33;;;16.80;1.00;;;;;;6281811;28;20230;-56
2022/09/17 12:05:49;;;;;;;2.53;2.10;;;17.00;1.00;;;;;;6283071;28;20771;-54
2022/09/17 12:08:59;;;;;;;6.53;2.40;;;17.10;1.00;;;;;;6291204;28;20240;-56
2022/09/17 12:12:07;;;;;;;2.87;2.43;;;17.20;1.00;;;;;;6292575;28;20229;-55
2022/09/17 12:15:17;;;;;;;3.20;2.20;;;17.40;1.00;;;;;;6282200;28;20229;-56
2022/09/17 12:18:31;;;;;;;2.53;2.30;;;17.50;1.00;;;;;;6282395;28;20241;-55
2022/09/17 12:21:38;;;;;;;3.47;2.60;;;17.50;1.00;;;;;;6272972;28;20322;-56
2022/09/17 12:24:42;;;;;;;3.07;2.50;;;17.30;1.00;;;;;;6277898;28;20246;-55
2022/09/17 12:27:54;;;;;;;3.13;2.57;;;17.00;1.00;;;;;;6279392;28;20238;-56
2022/09/17 12:31:05;;;;;;;5.03;2.70;;;16.90;1.00;;;;;;6292461;28;20264;-55
2022/09/17 12:34:26;;;;;;;4.03;2.47;;;16.60;1.00;;;;;;6284709;28;20297;-56
2022/09/17 12:37:37;;;;;;;3.17;2.83;;;16.60;1.00;;;;;;6297638;28;20410;-57
2022/09/17 12:40:46;;;;;;;3.80;2.43;;;16.30;1.00;;;;;;6290365;28;20729;-55
2022/09/17 12:44:16;;;;;;;3.13;2.50;;;16.10;1.00;;;;;;6294986;28;20237;-54
2022/09/17 12:47:47;;;;;;;3.07;2.77;;;16.10;1.00;;;;;;6288964;28;20491;-56
2022/09/17 12:51:03;;;;;;;4.87;2.90;;;16.30;1.00;;;;;;6285561;28;20234;-55
2022/09/17 12:54:16;;;;;;;2.73;2.50;;;16.50;1.00;;;;;;6280473;28;20717;-56
2022/09/17 12:57:31;;;;;;;4.50;2.30;;;16.60;1.00;;;;;;6291788;28;20309;-57
2022/09/17 13:00:40;;;;;;;3.00;2.47;;;16.60;1.00;;;;;;6282732;28;20256;-55
2022/09/17 13:03:46;;;;;;;4.03;2.40;;;16.50;1.00;;;;;;6280378;28;20240;-56
2022/09/17 13:07:20;;;;;;;2.70;2.50;;;16.40;1.00;;;;;;6288950;28;20241;-55
2022/09/17 13:10:40;;;;;;;6.13;2.67;;;16.30;1.00;;;;;;6293065;28;21873;-55
2022/09/17 13:13:50;;;;;;;3.40;2.30;;;16.20;1.00;;;;;;6274414;28;20287;-55
2022/09/17 13:17:00;;;;;;;2.83;2.10;;;16.10;1.00;;;;;;6290939;28;20230;-56
2022/09/17 13:20:13;;;;;;;4.73;2.17;;;15.90;1.00;;;;;;6289239;28;20264;-55
2022/09/17 13:23:16;;;;;;;2.63;2.07;;;16.00;1.00;;;;;;6292246;28;20229;-56
2022/09/17 13:26:23;;;;;;;3.33;1.97;;;16.00;1.00;;;;;;6293268;28;20236;-56
2022/09/17 13:29:57;;;;;;;3.07;2.13;;;16.20;1.00;;;;;;6277862;28;20238;-54
2022/09/17 13:33:01;;;;;;;2.27;2.07;;;16.30;1.00;;;;;;6284725;28;20240;-56
2022/09/17 13:36:24;;;;;;;4.03;2.30;;;16.50;1.00;;;;;;6294615;28;20300;-55
2022/09/17 13:39:50;;;;;;;2.13;2.03;;;16.50;1.00;;;;;;6283073;28;20853;-55
2022/09/17 13:42:56;;;;;;;2.47;2.27;;;16.50;1.00;;;;;;6282243;28;20236;-56
2022/09/17 13:46:16;;;;;;;2.70;2.50;;;16.60;1.00;;;;;;6285769;28;20229;-55
2022/09/17 13:49:19;;;;;;;2.57;2.27;;;16.70;1.00;;;;;;6283234;28;20240;-56
2022/09/17 13:52:42;;;;;;;3.27;2.23;;;16.80;1.00;;;;;;6290396;28;20727;-56
2022/09/17 13:55:50;;;;;;;7.20;2.20;;;17.00;1.00;;;;;;6291125;28;20240;-56
2022/09/17 13:58:53;;;;;;;3.73;2.50;;;17.10;1.00;;;;;;6288086;28;20237;-56
2022/09/17 14:02:02;;;;;;;6.90;2.77;;;17.10;1.00;;;;;;6297505;28;20244;-56
2022/09/17 14:05:31;;;;;;;6.83;2.57;;;17.00;1.00;;;;;;6288652;28;20321;-56
2022/09/17 14:08:48;;;;;;;6.53;2.87;;;16.90;1.00;;;;;;6278357;28;20721;-56
2022/09/17 14:11:52;;;;;;;3.37;2.20;;;17.00;1.00;;;;;;6282239;28;20237;-55
2022/09/17 14:14:55;;;;;;;4.57;2.40;;;17.00;1.00;;;;;;6282794;28;20870;-60
2022/09/17 14:17:58;;;;;;;4.63;2.47;;;16.90;1.00;;;;;;6290262;28;20372;-58
2022/09/17 14:21:06;;;;;;;4.23;2.40;;;16.80;1.00;;;;;;6287403;28;20236;-56
2022/09/17 14:24:20;;;;;;;4.87;2.13;;;16.70;1.00;;;;;;6290613;28;20230;-57
2022/09/17 14:27:49;;;;;;;4.87;2.40;;;16.70;1.00;;;;;;6287214;28;20260;-56
2022/09/17 14:30:53;;;;;;;6.77;2.50;;;16.60;1.00;;;;;;6284538;28;20707;-55
2022/09/17 14:33:55;;;;;;;6.33;2.50;;;16.50;1.00;;;;;;6281152;28;20571;-56
2022/09/17 14:36:59;;;;;;;4.30;2.20;;;16.40;1.00;;;;;;6286643;28;20248;-56
2022/09/17 14:40:09;;;;;;;4.00;2.60;;;16.20;1.00;;;;;;6285809;28;20236;-56
2022/09/17 14:43:19;;;;;;;4.43;2.63;;;16.00;1.00;;;;;;6282545;28;20686;-56
2022/09/17 14:46:25;;;;;;;5.10;2.43;;;15.80;1.00;;;;;;6281580;28;20241;-57
2022/09/17 14:49:30;;;;;;;3.83;2.10;;;15.60;1.00;;;;;;6284870;28;20241;-55
2022/09/17 14:52:33;;;;;;;2.17;2.07;;;15.40;1.00;;;;;;6278511;28;20412;-56
2022/09/17 14:55:41;;;;;;;2.57;1.90;;;15.40;1.00;;;;;;6288207;28;20709;-55
2022/09/17 14:58:50;;;;;;;3.13;1.80;;;15.40;1.00;;;;;;6291022;28;20237;-55
2022/09/17 15:01:53;;;;;;;2.10;1.90;;;15.40;1.00;;;;;;6285169;28;20234;-55
2022/09/17 15:04:57;;;;;;;1.80;1.80;;;15.30;1.00;;;;;;6284764;28;20232;-55
2022/09/17 15:08:12;;;;;;;2.30;1.70;;;15.30;1.00;;;;;;6270330;28;20240;-55
2022/09/17 15:11:16;;;;;;;2.03;1.50;;;15.30;1.00;;;;;;6284099;28;20229;-55
2022/09/17 15:14:23;;;;;;;1.67;1.67;;;15.30;1.00;;;;;;6287976;28;20713;-55
2022/09/17 15:17:26;;;;;;;1.53;1.43;;;15.40;1.00;;;;;;6287838;28;20241;-55
2022/09/17 15:20:31;;;;;;;1.40;1.40;;;15.30;1.00;;;;;;6278518;28;20252;-56
2022/09/17 15:23:36;;;;;;;1.70;1.57;;;15.30;1.00;;;;;;6281120;28;20309;-55
2022/09/17 15:26:43;;;;;;;2.00;1.40;;;15.20;1.00;;;;;;6277188;28;20244;-55
2022/09/17 15:29:50;;;;;;;2.27;1.67;;;15.10;1.00;;;;;;6286168;28;20245;-53
2022/09/17 15:32:56;;;;;;;2.67;1.50;;;15.00;1.00;;;;;;6286236;28;20245;-55
2022/09/17 15:36:02;;;;;;;1.40;1.40;;;14.70;1.00;;;;;;6283344;28;20225;-55
2022/09/17 15:39:29;;;;;;;1.50;1.50;;;14.60;1.00;;;;;;6283494;28;20229;-55
2022/09/17 15:42:32;;;;;;;2.23;1.63;;;14.50;1.00;;;;;;6285147;28;20629;-54
2022/09/17 15:45:38;;;;;;;1.70;1.70;;;14.30;1.00;;;;;;6292845;28;20243;-55
2022/09/17 15:48:40;;;;;;;1.93;1.80;;;14.30;1.00;;;;;;6284241;28;20399;-55
2022/09/17 15:51:43;;;;;;;4.47;1.67;;;14.20;1.00;;;;;;6284878;28;20244;-55
2022/09/17 15:54:46;;;;;;;3.97;1.97;;;14.10;1.00;;;;;;6281406;28;20625;-57
2022/09/17 15:57:49;;;;;;;3.77;2.20;;;14.00;1.00;;;;;;6279946;28;20230;-55
2022/09/17 16:01:48;;;;;;;2.73;1.80;;;14.00;1.00;;;;;;6288947;28;20244;-55
2022/09/17 16:05:27;;;;;;;2.60;2.47;;;13.90;1.00;;;;;;6282354;28;20225;-54
2022/09/17 16:08:35;;;;;;;3.73;2.80;;;13.80;1.00;;;;;;6281459;28;20222;-54
2022/09/17 16:11:39;;;;;;;2.83;2.10;;;13.60;1.00;;;;;;6292221;28;20646;-54
2022/09/17 16:14:51;;;;;;;2.20;2.00;;;13.50;1.00;;;;;;6280975;28;20233;-54
2022/09/17 16:17:55;;;;;;;2.30;2.00;;;13.40;1.00;;;;;;6296751;28;20232;-55
2022/09/17 16:20:58;;;;;;;1.97;1.87;;;13.30;1.00;;;;;;6285877;28;20734;-56
2022/09/17 16:24:01;;;;;;;4.07;2.00;;;13.20;1.00;;;;;;6281124;28;20236;-55
2022/09/17 16:27:06;;;;;;;2.70;2.40;;;13.10;1.00;;;;;;6291813;28;20236;-55
2022/09/17 16:30:15;;;;;;;2.07;1.97;;;13.00;1.00;;;;;;6284121;28;20244;-55